createdAt,value
2023-01-03T00:01:04.529Z,2.33
2023-01-03T00:16:06.018Z,2.23
2023-01-03T00:31:07.552Z,2.20
2023-01-03T00:46:09.128Z,2.00
2023-01-03T01:01:10.716Z,1.87
2023-01-03T01:16:12.360Z,2.30
2023-01-03T01:31:13.954Z,2.00
2023-01-03T01:46:15.477Z,2.00
2023-01-03T02:01:17.049Z,2.20
2023-01-03T02:16:18.685Z,1.80
2023-01-03T02:31:20.354Z,1.77
2023-01-03T02:46:21.907Z,1.90
2023-01-03T03:01:29.563Z,1.90
2023-01-03T03:16:31.228Z,2.23
2023-01-03T03:31:32.757Z,1.70
2023-01-03T03:46:34.338Z,2.00
2023-01-03T04:01:35.996Z,1.80
2023-01-03T04:16:37.715Z,2.20
2023-01-03T04:31:39.431Z,2.67
2023-01-03T04:46:40.954Z,1.60
2023-01-03T05:01:43.655Z,1.60
2023-01-03T05:16:45.283Z,2.23
2023-01-03T05:31:46.868Z,2.57
2023-01-03T05:46:48.384Z,2.30
2023-01-03T06:01:50.018Z,2.00
2023-01-03T06:16:51.632Z,1.83
2023-01-03T06:31:53.148Z,2.43
2023-01-03T06:46:54.622Z,1.77
2023-01-03T07:01:56.327Z,1.67
2023-01-03T07:16:57.948Z,2.10
2023-01-03T07:31:59.404Z,2.23
2023-01-03T07:47:00.879Z,2.03
2023-01-03T08:02:02.467Z,1.80
2023-01-03T08:17:04.009Z,2.73
2023-01-03T08:32:05.492Z,2.00
2023-01-03T08:47:08.290Z,2.40
2023-01-03T09:02:10.319Z,2.10
2023-01-03T09:17:11.928Z,2.60
2023-01-03T09:32:13.455Z,1.70
2023-01-03T09:47:15.025Z,2.10
2023-01-03T10:02:16.555Z,2.40
2023-01-03T10:17:18.113Z,1.90
2023-01-03T10:32:19.735Z,1.80
2023-01-03T10:47:21.210Z,2.10
2023-01-03T11:02:22.795Z,1.60
2023-01-03T11:17:24.441Z,1.60
2023-01-03T11:32:26.033Z,1.80
2023-01-03T11:47:27.576Z,1.50
2023-01-03T12:02:29.198Z,1.40
2023-01-03T12:17:30.786Z,2.13
2023-01-03T12:32:32.273Z,1.50
2023-01-03T12:47:33.747Z,1.50
2023-01-03T13:02:35.543Z,1.60
2023-01-03T13:17:37.262Z,1.50
2023-01-03T13:32:38.873Z,1.73
2023-01-03T13:47:40.334Z,1.60
2023-01-03T14:02:41.976Z,1.47
2023-01-03T14:17:43.653Z,1.50
2023-01-03T14:32:45.128Z,1.70
2023-01-03T14:47:46.594Z,1.50
2023-01-03T15:02:48.239Z,2.13
2023-01-03T15:17:49.793Z,1.50
2023-01-03T15:32:51.362Z,1.30
2023-01-03T15:47:52.851Z,1.33
2023-01-03T16:02:54.417Z,1.63
2023-01-03T16:17:55.987Z,1.37
2023-01-03T16:32:57.448Z,1.20
2023-01-03T16:47:58.946Z,1.30
2023-01-03T17:03:00.928Z,1.10
2023-01-03T17:18:02.607Z,1.30
2023-01-03T17:33:04.079Z,1.70
2023-01-03T17:48:05.553Z,1.50
2023-01-03T18:03:07.157Z,1.33
2023-01-03T18:18:08.827Z,1.40
2023-01-03T18:33:10.303Z,1.23
2023-01-03T18:48:11.771Z,1.10
2023-01-03T19:03:13.311Z,1.73
2023-01-03T19:18:14.867Z,3.27
2023-01-03T19:33:16.332Z,2.73
2023-01-03T19:48:17.819Z,3.00
2023-01-03T20:03:19.552Z,3.17
2023-01-03T20:18:21.163Z,2.63
2023-01-03T20:33:22.816Z,2.43
2023-01-03T20:48:26.346Z,2.70
2023-01-03T21:03:28.126Z,2.60
2023-01-03T21:18:29.659Z,2.60
2023-01-03T21:33:31.125Z,2.40
2023-01-03T21:48:32.588Z,2.20
2023-01-03T22:03:34.148Z,1.90
2023-01-03T22:18:35.695Z,2.20
2023-01-03T22:33:37.169Z,2.53
2023-01-03T22:48:38.747Z,2.33
2023-01-03T23:03:40.264Z,1.90
2023-01-03T23:18:41.783Z,1.70
2023-01-03T23:33:43.280Z,1.90
2023-01-03T23:48:44.748Z,1.60
